createdAt,value
2018-08-31T08:35:36.860Z,22.93
2018-08-31T08:38:07.821Z,21.50
2018-08-31T08:43:33.153Z,21.07
2018-08-31T08:46:04.211Z,25.23
2018-08-31T08:48:39.379Z,21.90
2018-08-31T08:51:19.176Z,26.37
2018-08-31T09:48:48.656Z,29.63
2018-08-31T09:51:29.457Z,32.13
2018-08-31T09:54:19.508Z,31.43
2018-08-31T10:00:53.451Z,29.80
2018-08-31T10:03:32.377Z,30.57
2018-08-31T10:06:14.269Z,31.03
2018-08-31T10:08:58.511Z,32.53
2018-08-31T10:17:53.362Z,32.30
2018-08-31T11:48:57.459Z,27.23
2018-08-31T11:51:35.369Z,28.43
2018-08-31T11:54:09.545Z,29.43
2018-08-31T11:56:45.602Z,29.83
2018-08-31T11:59:17.709Z,25.80
2018-08-31T12:01:50.067Z,28.87
2018-08-31T12:04:20.352Z,29.70
2018-08-31T12:06:54.011Z,27.07
2018-08-31T12:09:27.590Z,28.70
2018-08-31T12:12:01.889Z,29.33
2018-08-31T12:14:33.235Z,27.30
2018-08-31T12:17:05.651Z,26.53
2018-08-31T12:19:38.271Z,28.07
2018-08-31T12:22:12.434Z,24.83
2018-08-31T12:24:46.188Z,28.20
2018-08-31T12:27:22.050Z,28.17
2018-08-31T12:29:58.724Z,31.33
2018-08-31T12:32:31.096Z,25.67
2018-08-31T12:35:03.500Z,29.53
2018-08-31T12:37:42.390Z,26.83
2018-08-31T12:40:13.435Z,24.97
2018-08-31T12:42:45.391Z,24.53
2018-08-31T12:45:22.710Z,25.20
2018-08-31T12:47:59.126Z,22.47
2018-08-31T12:50:33.284Z,22.70
2018-08-31T12:53:07.287Z,20.43
2018-08-31T12:55:41.777Z,19.67
2018-08-31T12:58:14.238Z,18.63
2018-08-31T13:00:47.765Z,17.70
2018-08-31T13:03:19.562Z,19.97
2018-08-31T13:05:51.095Z,17.80
2018-08-31T13:08:26.031Z,15.40
2018-08-31T13:10:57.392Z,16.50
2018-08-31T13:13:26.772Z,12.23
2018-08-31T13:15:57.616Z,12.20
2018-08-31T13:18:28.916Z,12.57
2018-08-31T13:20:59.814Z,9.67
2018-08-31T13:23:30.384Z,8.70
2018-08-31T13:26:00.296Z,6.80
2018-08-31T13:28:31.235Z,7.87
2018-08-31T13:31:06.774Z,6.80
2018-08-31T13:33:38.708Z,4.20
2018-08-31T13:36:13.893Z,6.50
2018-08-31T13:38:58.178Z,7.40
2018-08-31T15:23:01.861Z,5.03
2018-08-31T15:25:32.513Z,4.83
2018-08-31T15:28:01.570Z,7.07
2018-08-31T15:30:32.479Z,5.57
2018-08-31T15:33:03.067Z,3.83
2018-08-31T15:35:32.613Z,3.23
2018-08-31T15:38:01.946Z,3.97
2018-08-31T15:46:19.147Z,2.90
2018-08-31T15:48:48.686Z,4.20
2018-08-31T15:51:17.603Z,4.00
2018-08-31T15:53:56.644Z,3.57
2018-08-31T15:56:29.576Z,3.70
2018-08-31T15:58:58.710Z,3.77
2018-08-31T16:01:28.766Z,4.17
2018-08-31T16:03:57.804Z,4.00
2018-08-31T16:06:29.338Z,3.90
2018-08-31T16:09:00.945Z,3.90
2018-08-31T16:11:30.610Z,3.93
2018-08-31T16:14:00.057Z,3.60
2018-08-31T16:16:30.184Z,4.00
2018-08-31T16:19:00.423Z,5.00
2018-08-31T16:21:31.134Z,4.40
2018-08-31T16:24:02.653Z,3.53
2018-08-31T16:26:31.935Z,3.90
2018-08-31T16:29:01.954Z,3.53
2018-08-31T16:31:30.986Z,4.30
2018-08-31T16:34:01.279Z,4.20
2018-08-31T16:36:30.941Z,3.80
2018-08-31T16:39:00.588Z,5.50
2018-08-31T20:27:09.760Z,37.93
2018-08-31T20:30:10.871Z,41.17
2018-08-31T20:32:51.886Z,41.83
2018-08-31T20:35:26.490Z,39.07
2018-08-31T20:37:55.530Z,39.30
2018-08-31T20:40:24.360Z,38.93
2018-08-31T20:42:53.367Z,39.73
2018-08-31T20:45:22.434Z,45.37
2018-08-31T20:47:51.320Z,43.87
2018-08-31T20:50:20.867Z,40.83
2018-08-31T20:52:52.176Z,40.77
2018-08-31T20:55:21.828Z,41.10
2018-08-31T20:57:50.917Z,39.17
2018-08-31T21:00:20.213Z,42.67
2018-08-31T21:02:49.820Z,41.17
2018-08-31T21:05:18.890Z,36.83
2018-08-31T21:07:48.427Z,37.80
2018-08-31T21:10:17.875Z,35.33
2018-08-31T21:12:47.148Z,32.53
2018-08-31T21:15:16.552Z,32.23
2018-08-31T21:17:45.858Z,31.27
2018-08-31T21:20:16.568Z,27.90
2018-08-31T21:22:46.273Z,26.60
2018-08-31T21:25:15.905Z,23.70
2018-08-31T21:27:44.693Z,22.87
2018-08-31T21:30:14.914Z,23.10
2018-08-31T21:32:43.960Z,20.90
2018-08-31T21:35:13.361Z,20.33
2018-08-31T21:37:43.614Z,17.90
2018-08-31T21:40:13.167Z,18.37
2018-08-31T21:42:42.095Z,19.83
2018-08-31T21:45:10.725Z,16.20
2018-08-31T21:47:40.645Z,17.50
2018-08-31T21:50:09.673Z,16.57
2018-08-31T21:52:38.848Z,17.10
2018-08-31T21:55:08.104Z,15.93
2018-08-31T21:57:37.108Z,16.10
2018-08-31T22:00:09.573Z,15.57
2018-08-31T22:02:38.674Z,16.03
2018-08-31T22:05:07.820Z,14.07
2018-08-31T22:07:36.678Z,14.17
2018-08-31T22:10:05.568Z,12.90
2018-08-31T22:12:34.458Z,14.60
2018-08-31T22:15:04.538Z,13.90
2018-08-31T22:17:33.806Z,14.00
2018-08-31T22:20:02.665Z,15.40
2018-08-31T22:22:34.229Z,13.00
2018-08-31T22:25:05.500Z,13.77
2018-08-31T22:27:35.441Z,12.50
2018-08-31T22:30:04.592Z,13.23
2018-08-31T22:32:34.324Z,13.57
2018-08-31T22:35:04.513Z,12.93
2018-08-31T22:37:33.739Z,13.53
2018-08-31T22:40:02.858Z,13.33
2018-08-31T22:42:33.032Z,14.27
2018-08-31T22:45:02.513Z,13.47
2018-08-31T22:47:31.731Z,14.67
2018-08-31T22:50:00.811Z,15.10
2018-08-31T22:52:29.550Z,14.57
2018-08-31T22:54:59.484Z,15.70
2018-08-31T22:57:29.124Z,15.00
2018-08-31T22:59:57.841Z,16.73
2018-08-31T23:02:28.146Z,17.67
2018-08-31T23:04:57.320Z,15.70
2018-08-31T23:07:33.654Z,15.00
2018-08-31T23:10:02.777Z,15.43
2018-08-31T23:12:31.773Z,13.90
2018-08-31T23:15:00.771Z,14.30
2018-08-31T23:17:30.333Z,13.77
2018-08-31T23:20:00.440Z,13.60
2018-08-31T23:22:30.552Z,13.43
2018-08-31T23:25:01.049Z,13.60
2018-08-31T23:27:30.711Z,14.63
2018-08-31T23:29:59.588Z,19.13
2018-08-31T23:32:29.185Z,18.23
2018-08-31T23:35:02.337Z,16.47
2018-08-31T23:37:31.653Z,16.80
2018-08-31T23:40:00.826Z,16.93
2018-08-31T23:42:32.753Z,15.83
2018-08-31T23:45:02.552Z,15.60
2018-08-31T23:47:31.704Z,16.27
2018-08-31T23:50:01.638Z,16.17
2018-08-31T23:52:30.992Z,17.60
2018-08-31T23:55:00.326Z,16.17
2018-08-31T23:57:29.832Z,16.43
2018-08-31T23:59:59.271Z,16.00
